Time;durP1;ratioP1;P1;durP2;ratioP2;P2;SDS_P1;SDS_P2;PMS_P1;PMS_P2;Temp;Humidity;BMP_temperature;BMP_pressure;BME280_temperature;BME280_humidity;BME280_pressure;Samples;Min_cycle;Max_cycle;Signal;HPM_P1;HPM_P2
2022/07/01 00:00:36;;;;;;;4.85;2.50;;;14.90;99.90;;;;;;6216383;23;20518;-72
2022/07/01 00:03:03;;;;;;;4.80;1.42;;;14.90;99.90;;;;;;6216462;23;20016;-72
2022/07/01 00:05:29;;;;;;;9.02;1.65;;;14.90;99.90;;;;;;6190117;23;20331;-73
2022/07/01 00:07:55;;;;;;;8.50;1.70;;;14.80;99.90;;;;;;6216790;23;20083;-74
2022/07/01 00:10:21;;;;;;;9.15;1.77;;;14.80;99.90;;;;;;6190070;23;20018;-72
2022/07/01 00:12:47;;;;;;;12.70;1.92;;;14.80;99.90;;;;;;6216721;23;20049;-72
2022/07/01 00:15:12;;;;;;;8.85;2.95;;;14.80;99.90;;;;;;6190064;23;20024;-72
2022/07/01 00:17:39;;;;;;;8.25;1.98;;;14.80;99.90;;;;;;6216772;23;20445;-73
2022/07/01 00:20:09;;;;;;;10.05;2.28;;;14.90;99.90;;;;;;6216652;23;20341;-73
2022/07/01 00:22:35;;;;;;;8.85;2.47;;;14.90;99.90;;;;;;6216596;23;20024;-72
2022/07/01 00:25:00;;;;;;;6.93;1.73;;;14.90;99.90;;;;;;6216207;23;20013;-72
2022/07/01 00:27:26;;;;;;;6.45;1.27;;;14.90;99.90;;;;;;6216602;23;20059;-74
2022/07/01 00:29:52;;;;;;;3.45;1.33;;;14.90;99.90;;;;;;6216650;23;20017;-73
2022/07/01 00:32:18;;;;;;;3.47;1.27;;;14.90;99.90;;;;;;6216472;23;20020;-73
2022/07/01 00:34:43;;;;;;;2.97;1.10;;;14.90;99.90;;;;;;6216013;23;20017;-74
2022/07/01 00:37:09;;;;;;;6.53;1.20;;;14.90;99.90;;;;;;6216349;23;20027;-72
2022/07/01 00:39:36;;;;;;;6.18;2.05;;;14.90;99.90;;;;;;6216129;23;20070;-72
2022/07/01 00:42:03;;;;;;;3.95;1.08;;;14.90;99.90;;;;;;6189937;23;20279;-72
2022/07/01 00:44:30;;;;;;;3.55;1.20;;;14.80;99.90;;;;;;6216388;23;20008;-73
2022/07/01 00:46:56;;;;;;;;;;;14.90;99.90;;;;;;6216908;23;20452;-71
2022/07/01 00:49:22;;;;;;;3.08;1.23;;;14.90;99.90;;;;;;6189896;23;19938;-72
2022/07/01 00:51:48;;;;;;;8.48;1.65;;;14.80;99.90;;;;;;6216257;23;20016;-72
2022/07/01 00:54:14;;;;;;;3.05;1.35;;;14.80;99.90;;;;;;6189770;23;20016;-71
2022/07/01 00:56:40;;;;;;;4.57;2.08;;;14.90;99.90;;;;;;6216267;23;20012;-72
2022/07/01 00:59:06;;;;;;;4.70;1.10;;;14.90;99.90;;;;;;6216248;23;20069;-72
2022/07/01 01:01:31;;;;;;;4.30;1.33;;;14.90;99.90;;;;;;6216234;23;20020;-74
2022/07/01 01:03:58;;;;;;;3.75;1.17;;;14.90;99.90;;;;;;6216428;23;20020;-71
2022/07/01 01:06:23;;;;;;;;;;;14.90;99.90;;;;;;6216613;23;20012;-73
2022/07/01 01:08:49;;;;;;;3.55;0.80;;;14.90;99.90;;;;;;6216210;23;19923;-73
2022/07/01 01:11:16;;;;;;;5.70;0.77;;;14.90;99.90;;;;;;6215772;23;20414;-73
2022/07/01 01:13:42;;;;;;;2.10;0.70;;;14.90;99.90;;;;;;6216178;23;20320;-71
2022/07/01 01:16:15;;;;;;;2.45;0.80;;;14.90;99.90;;;;;;6189489;23;20026;-71
2022/07/01 01:18:40;;;;;;;5.03;0.90;;;14.90;99.90;;;;;;6189551;23;20020;-72
2022/07/01 01:21:06;;;;;;;1.33;0.75;;;14.90;99.90;;;;;;6216174;23;20024;-71
2022/07/01 01:23:32;;;;;;;2.33;0.70;;;14.90;99.90;;;;;;6215990;23;20012;-71
2022/07/01 01:25:58;;;;;;;1.33;0.70;;;14.90;99.90;;;;;;6189164;23;20024;-72
2022/07/01 01:28:24;;;;;;;5.43;1.10;;;14.90;99.90;;;;;;6216138;23;20013;-72
2022/07/01 01:30:50;;;;;;;1.30;0.80;;;14.90;99.90;;;;;;6216041;23;20441;-72
2022/07/01 01:33:16;;;;;;;0.95;0.52;;;14.90;99.90;;;;;;6216067;23;20076;-72
2022/07/01 01:35:42;;;;;;;2.00;0.85;;;15.90;99.90;;;;;;6215256;23;20012;-73
2022/07/01 01:38:08;;;;;;;1.95;0.80;;;14.90;99.90;;;;;;6189409;23;20107;-72
2022/07/01 01:40:33;;;;;;;2.10;0.90;;;14.90;99.90;;;;;;6215995;23;20425;-71
2022/07/01 01:42:59;;;;;;;4.43;0.70;;;14.90;99.90;;;;;;6215982;23;20023;-71
2022/07/01 01:45:25;;;;;;;2.28;1.05;;;15.10;99.90;;;;;;6189477;23;20091;-73
2022/07/01 01:47:50;;;;;;;5.53;0.63;;;15.00;99.90;;;;;;6215954;23;20016;-72
2022/07/01 01:50:16;;;;;;;0.93;0.52;;;14.90;99.90;;;;;;6215961;23;20017;-71
2022/07/01 01:52:43;;;;;;;2.05;0.93;;;14.90;99.90;;;;;;6215766;23;20063;-73
2022/07/01 01:55:10;;;;;;;2.10;0.85;;;15.00;99.90;;;;;;6189170;23;20503;-71
2022/07/01 01:57:35;;;;;;;2.72;0.60;;;14.90;99.90;;;;;;6215877;23;20016;-71
2022/07/01 02:00:01;;;;;;;3.50;0.65;;;14.90;99.90;;;;;;6189598;23;20446;-71
2022/07/01 02:02:27;;;;;;;4.30;0.85;;;15.00;99.90;;;;;;6215857;23;20379;-71
2022/07/01 02:04:53;;;;;;;10.45;0.73;;;14.90;99.90;;;;;;6189171;23;20315;-72
2022/07/01 02:07:18;;;;;;;2.58;0.70;;;15.00;99.90;;;;;;6215433;23;20370;-72
2022/07/01 02:09:44;;;;;;;4.43;0.63;;;15.00;99.90;;;;;;6215927;23;20034;-71
2022/07/01 02:12:10;;;;;;;1.98;0.70;;;15.00;99.90;;;;;;6215838;23;20021;-72
2022/07/01 02:14:36;;;;;;;1.40;0.75;;;15.00;99.90;;;;;;6215813;23;20096;-71
2022/07/01 02:17:01;;;;;;;3.20;0.80;;;15.00;99.90;;;;;;6215753;23;20013;-70
2022/07/01 02:19:27;;;;;;;2.00;0.93;;;15.00;99.90;;;;;;6215790;23;20027;-71
2022/07/01 02:21:53;;;;;;;4.13;1.20;;;15.00;99.90;;;;;;6215680;23;20020;-72
2022/07/01 02:24:19;;;;;;;2.40;0.88;;;15.00;99.90;;;;;;6216976;23;20020;-72
2022/07/01 02:26:45;;;;;;;2.05;0.65;;;15.10;99.90;;;;;;6217772;23;20062;-71
2022/07/01 02:29:11;;;;;;;;;;;15.10;99.90;;;;;;6191707;23;20146;-71
2022/07/01 02:31:36;;;;;;;2.95;0.70;;;15.10;99.90;;;;;;6217727;23;20317;-72
2022/07/01 02:34:02;;;;;;;3.03;0.75;;;15.60;99.90;;;;;;6217590;23;20012;-71
2022/07/01 02:36:27;;;;;;;4.43;0.60;;;15.10;99.90;;;;;;6217547;23;20016;-71
2022/07/01 02:38:53;;;;;;;3.70;0.85;;;15.10;99.90;;;;;;6217524;23;20329;-71
2022/07/01 02:41:19;;;;;;;2.42;0.80;;;15.10;99.90;;;;;;6217696;23;20012;-71
2022/07/01 02:43:44;;;;;;;2.65;0.82;;;15.10;99.90;;;;;;6217649;23;20013;-72
2022/07/01 02:46:10;;;;;;;1.80;0.70;;;15.10;99.90;;;;;;6217197;23;20021;-73
2022/07/01 02:48:35;;;;;;;1.08;0.40;;;15.00;99.90;;;;;;6217581;23;20017;-72
2022/07/01 02:51:01;;;;;;;1.15;0.50;;;15.00;99.90;;;;;;6190659;23;20032;-73
2022/07/01 02:53:27;;;;;;;1.42;0.57;;;15.00;99.90;;;;;;6217450;23;20029;-70
2022/07/01 02:55:52;;;;;;;1.70;0.70;;;15.00;99.90;;;;;;6217905;23;20008;-70
2022/07/01 02:58:18;;;;;;;2.35;0.50;;;15.00;99.90;;;;;;6217572;23;20363;-73
2022/07/01 03:00:44;;;;;;;3.60;0.68;;;14.90;99.90;;;;;;6217854;23;20036;-73
2022/07/01 03:03:10;;;;;;;2.03;0.80;;;14.90;99.90;;;;;;6190762;23;20374;-72
2022/07/01 03:05:36;;;;;;;1.98;0.60;;;14.90;99.90;;;;;;6190886;23;20047;-71
2022/07/01 03:08:01;;;;;;;0.95;0.40;;;14.90;99.90;;;;;;6217211;23;20028;-71
2022/07/01 03:10:27;;;;;;;2.78;0.65;;;14.80;99.90;;;;;;6217334;23;20021;-71
2022/07/01 03:12:53;;;;;;;1.58;0.60;;;14.80;99.90;;;;;;6217416;23;20018;-71
2022/07/01 03:15:19;;;;;;;1.80;0.60;;;14.80;99.90;;;;;;6217144;23;20009;-71
2022/07/01 03:17:46;;;;;;;2.65;0.93;;;14.80;99.90;;;;;;6190754;23;20025;-71
2022/07/01 03:20:14;;;;;;;1.85;0.90;;;14.80;99.90;;;;;;6217274;23;20017;-72
2022/07/01 03:22:41;;;;;;;2.67;1.08;;;14.80;99.90;;;;;;6217181;23;20016;-73
2022/07/01 03:25:08;;;;;;;2.08;0.95;;;14.80;99.90;;;;;;6217269;23;20081;-72
2022/07/01 03:27:34;;;;;;;1.77;1.00;;;14.80;99.90;;;;;;6217161;23;20023;-72
2022/07/01 03:30:00;;;;;;;1.73;0.88;;;14.80;99.90;;;;;;6217127;23;20048;-72
2022/07/01 03:32:26;;;;;;;1.65;0.93;;;14.70;99.90;;;;;;6217161;23;20457;-72
2022/07/01 03:34:52;;;;;;;1.75;0.88;;;14.90;99.90;;;;;;6216398;23;20017;-74
2022/07/01 03:37:19;;;;;;;;;;;14.80;99.90;;;;;;6217350;23;20020;-71
2022/07/01 03:39:45;;;;;;;4.50;1.08;;;14.80;99.90;;;;;;6190401;23;19916;-73
2022/07/01 03:42:11;;;;;;;2.08;1.08;;;14.80;99.90;;;;;;6217002;23;20012;-70
2022/07/01 03:44:37;;;;;;;2.60;1.33;;;14.80;99.90;;;;;;6217063;23;20047;-72
2022/07/01 03:47:07;;;;;;;3.13;1.05;;;14.80;99.90;;;;;;6217044;23;20091;-72
2022/07/01 03:49:36;;;;;;;2.50;1.10;;;14.80;99.90;;;;;;6217003;23;20021;-71
2022/07/01 03:52:03;;;;;;;2.33;1.23;;;14.80;99.90;;;;;;6190294;23;20016;-71
2022/07/01 03:54:29;;;;;;;2.83;1.35;;;14.80;99.90;;;;;;6216855;23;20075;-72
2022/07/01 03:56:59;;;;;;;3.10;1.70;;;14.80;99.90;;;;;;6216851;23;20016;-71
2022/07/01 03:59:26;;;;;;;2.47;1.30;;;14.80;99.90;;;;;;6216888;23;20059;-71
2022/07/01 04:01:55;;;;;;;2.35;1.20;;;14.90;99.90;;;;;;6216834;23;20020;-71
2022/07/01 04:04:22;;;;;;;2.88;1.50;;;14.90;99.90;;;;;;6216830;23;20027;-71
2022/07/01 04:06:48;;;;;;;2.17;1.42;;;14.90;99.90;;;;;;6216642;23;20016;-73
2022/07/01 04:09:16;;;;;;;3.88;1.30;;;14.90;99.90;;;;;;6216788;23;20021;-73
2022/07/01 04:11:44;;;;;;;3.40;1.52;;;15.00;99.90;;;;;;6216817;23;20052;-71
2022/07/01 04:14:10;;;;;;;2.40;1.27;;;14.90;99.90;;;;;;6216722;23;20016;-70
2022/07/01 04:16:36;;;;;;;3.95;1.95;;;15.80;99.90;;;;;;6216604;23;20413;-73
2022/07/01 04:19:03;;;;;;;3.83;1.52;;;14.90;99.90;;;;;;6216810;23;20338;-72
2022/07/01 04:24:13;;;;;;;3.17;1.15;;;14.90;99.90;;;;;;6216528;23;20465;-72
2022/07/01 04:26:40;;;;;;;2.58;1.65;;;14.90;99.90;;;;;;6216652;23;20016;-71
2022/07/01 04:29:07;;;;;;;3.88;1.30;;;14.90;99.90;;;;;;6216518;23;20024;-73
2022/07/01 04:31:33;;;;;;;2.55;1.48;;;15.00;99.90;;;;;;6216609;23;20024;-71
2022/07/01 04:33:59;;;;;;;3.70;1.67;;;15.00;99.90;;;;;;6215796;23;20013;-72
2022/07/01 04:36:25;;;;;;;3.70;1.80;;;15.00;99.90;;;;;;6216346;23;20024;-71
2022/07/01 04:38:51;;;;;;;3.35;1.60;;;15.00;99.90;;;;;;6216417;23;20052;-70
2022/07/01 04:44:01;;;;;;;4.10;2.25;;;15.00;99.90;;;;;;6216344;23;20051;-71
2022/07/01 04:46:27;;;;;;;5.75;2.60;;;15.00;99.90;;;;;;6216271;23;20397;-72
2022/07/01 04:48:53;;;;;;;7.10;2.45;;;15.00;99.90;;;;;;6216369;23;20055;-71
2022/07/01 04:51:18;;;;;;;4.30;2.28;;;15.00;99.90;;;;;;6216427;23;20020;-71
2022/07/01 04:53:44;;;;;;;4.50;2.35;;;15.00;99.90;;;;;;6216334;23;20021;-71
2022/07/01 04:56:10;;;;;;;4.55;2.80;;;15.00;99.90;;;;;;6216173;23;20151;-72
2022/07/01 04:58:35;;;;;;;5.13;3.17;;;15.00;99.90;;;;;;6215922;23;20025;-71
2022/07/01 05:01:01;;;;;;;9.85;4.18;;;15.10;99.90;;;;;;6216237;23;20020;-71
2022/07/01 05:03:27;;;;;;;10.20;4.60;;;15.10;99.90;;;;;;6216237;23;20078;-72
2022/07/01 05:05:52;;;;;;;8.77;5.18;;;15.10;99.90;;;;;;6216274;23;20012;-71
2022/07/01 05:08:18;;;;;;;12.10;4.85;;;15.00;99.90;;;;;;6216144;23;20020;-72
2022/07/01 05:10:43;;;;;;;8.73;5.78;;;15.00;99.90;;;;;;6216221;23;20028;-71
2022/07/01 05:13:09;;;;;;;13.77;5.97;;;15.00;99.90;;;;;;6189722;23;20021;-72
2022/07/01 05:15:35;;;;;;;10.43;6.65;;;15.10;99.90;;;;;;6216105;23;20027;-74
2022/07/01 05:23:29;;;;;;;14.88;9.10;;;15.00;99.90;;;;;;6215849;23;20028;-71
2022/07/01 05:25:54;;;;;;;14.77;9.13;;;15.00;99.90;;;;;;6216373;23;20328;-71
2022/07/01 05:28:20;;;;;;;16.40;9.68;;;15.00;99.90;;;;;;6215962;23;20013;-71
2022/07/01 05:30:46;;;;;;;17.15;10.68;;;15.00;99.90;;;;;;6215966;23;20078;-71
2022/07/01 05:33:11;;;;;;;19.45;11.20;;;15.00;99.90;;;;;;6215361;23;20090;-71
2022/07/01 05:35:37;;;;;;;18.02;11.23;;;15.00;99.90;;;;;;6188354;23;20020;-71
2022/07/01 05:38:03;;;;;;;19.98;11.80;;;15.00;99.90;;;;;;6215819;23;20095;-73
2022/07/01 05:40:28;;;;;;;23.38;12.27;;;15.00;99.90;;;;;;6215871;23;20017;-72
2022/07/01 05:42:55;;;;;;;18.95;12.32;;;15.00;99.90;;;;;;6189070;23;20055;-71
2022/07/01 05:45:21;;;;;;;24.48;12.57;;;15.00;99.90;;;;;;6215878;23;20078;-71
2022/07/01 05:47:46;;;;;;;22.15;13.77;;;15.00;99.90;;;;;;6215760;23;20017;-72
2022/07/01 05:50:12;;;;;;;19.95;12.40;;;15.00;99.90;;;;;;6215808;23;20031;-73
2022/07/01 05:52:38;;;;;;;21.17;12.75;;;15.10;99.90;;;;;;6215863;23;20099;-71
2022/07/01 05:55:04;;;;;;;26.88;13.05;;;15.00;99.90;;;;;;6189341;23;20016;-72
2022/07/01 05:57:29;;;;;;;22.77;14.13;;;15.00;99.90;;;;;;6215903;23;20020;-73
2022/07/01 05:59:55;;;;;;;19.55;12.60;;;15.00;99.90;;;;;;6217701;23;20063;-71
2022/07/01 06:02:21;;;;;;;21.13;13.45;;;15.00;99.90;;;;;;6217855;23;20013;-71
2022/07/01 06:04:46;;;;;;;21.70;13.88;;;15.00;99.90;;;;;;6217990;23;20017;-73
2022/07/01 06:07:12;;;;;;;20.80;12.25;;;15.00;99.90;;;;;;6217919;23;20410;-72
2022/07/01 06:09:38;;;;;;;21.92;12.05;;;15.00;99.90;;;;;;6217936;23;20023;-71
2022/07/01 06:12:05;;;;;;;24.15;13.27;;;15.10;99.90;;;;;;6217917;23;20038;-70
2022/07/01 06:14:31;;;;;;;24.27;13.60;;;15.10;99.90;;;;;;6191350;23;20017;-74
2022/07/01 06:16:57;;;;;;;22.98;14.45;;;15.10;99.90;;;;;;6217800;23;20381;-73
2022/07/01 06:19:22;;;;;;;24.13;14.57;;;15.10;99.90;;;;;;6217619;23;20028;-71
2022/07/01 06:21:48;;;;;;;22.33;13.73;;;15.10;99.90;;;;;;6217636;23;20066;-72
2022/07/01 06:24:14;;;;;;;22.10;12.38;;;15.10;99.90;;;;;;6217781;23;20319;-71
2022/07/01 06:26:40;;;;;;;20.63;11.90;;;15.10;99.90;;;;;;6217742;23;20082;-72
2022/07/01 06:29:06;;;;;;;22.15;13.93;;;15.20;99.90;;;;;;6218082;23;20453;-72
2022/07/01 06:31:33;;;;;;;23.95;13.35;;;15.20;99.90;;;;;;6217685;23;20341;-71
2022/07/01 06:34:00;;;;;;;21.90;13.35;;;15.10;99.90;;;;;;6217345;23;20078;-71
2022/07/01 06:36:26;;;;;;;23.23;13.88;;;15.10;99.90;;;;;;6217463;23;20052;-73
2022/07/01 06:38:51;;;;;;;19.58;12.48;;;15.10;99.90;;;;;;6216831;23;20422;-72
2022/07/01 06:41:26;;;;;;;22.17;13.57;;;15.20;99.90;;;;;;6217608;23;20108;-71
2022/07/01 06:43:53;;;;;;;22.85;13.57;;;15.10;99.90;;;;;;6217646;23;20021;-74
2022/07/01 06:46:19;;;;;;;22.52;12.55;;;15.10;99.90;;;;;;6217503;23;20008;-72
2022/07/01 06:48:45;;;;;;;24.25;13.95;;;15.10;99.90;;;;;;6217458;23;20048;-72
2022/07/01 06:51:10;;;;;;;24.00;13.43;;;15.10;99.90;;;;;;6217539;23;20472;-71
2022/07/01 06:53:36;;;;;;;23.63;14.80;;;15.20;99.90;;;;;;6217426;23;20457;-72
2022/07/01 06:56:02;;;;;;;26.02;14.13;;;15.20;99.90;;;;;;6189735;23;20110;-72
2022/07/01 06:58:28;;;;;;;21.95;13.27;;;15.20;99.90;;;;;;6217401;23;20016;-71
2022/07/01 07:00:54;;;;;;;25.70;14.73;;;15.20;99.90;;;;;;6217407;23;20327;-72
2022/07/01 07:03:19;;;;;;;23.17;13.95;;;15.20;99.90;;;;;;6217383;23;20334;-71
2022/07/01 07:05:45;;;;;;;23.50;13.90;;;15.10;99.90;;;;;;6217239;23;20032;-72
2022/07/01 07:08:11;;;;;;;23.35;14.80;;;15.20;99.90;;;;;;6217144;23;20012;-71
2022/07/01 07:10:37;;;;;;;25.88;15.40;;;15.30;99.90;;;;;;6216868;23;20055;-71
2022/07/01 07:13:03;;;;;;;26.88;14.43;;;15.30;99.90;;;;;;6190655;23;20030;-74
2022/07/01 07:15:28;;;;;;;26.80;14.27;;;15.30;99.90;;;;;;6190275;23;20377;-71
2022/07/01 07:17:57;;;;;;;23.08;13.85;;;15.30;99.90;;;;;;6217089;23;20024;-71
2022/07/01 07:20:26;;;;;;;21.08;14.02;;;15.40;99.90;;;;;;6213839;23;20021;-71
2022/07/01 07:22:53;;;;;;;24.90;14.85;;;15.40;99.90;;;;;;6214837;23;20021;-71
2022/07/01 07:25:19;;;;;;;25.85;14.98;;;15.40;99.90;;;;;;6190310;23;20024;-71
2022/07/01 07:27:46;;;;;;;24.95;14.77;;;15.40;99.90;;;;;;6217101;23;20021;-74
2022/07/01 07:30:12;;;;;;;22.23;14.52;;;15.60;99.90;;;;;;6217156;23;20079;-71
2022/07/01 07:32:39;;;;;;;24.33;14.90;;;15.50;99.90;;;;;;6217006;23;20103;-71
2022/07/01 07:35:06;;;;;;;22.25;14.35;;;15.50;99.90;;;;;;6189529;23;20027;-71
2022/07/01 07:37:32;;;;;;;21.85;15.00;;;15.50;99.90;;;;;;6190263;23;20017;-71
2022/07/01 07:39:59;;;;;;;23.25;13.88;;;15.60;99.90;;;;;;6217056;23;20082;-71
2022/07/01 07:42:25;;;;;;;21.33;13.57;;;15.60;99.90;;;;;;6217028;23;20020;-71
2022/07/01 07:44:50;;;;;;;21.80;13.82;;;15.60;99.90;;;;;;6217096;23;20020;-71
2022/07/01 07:47:16;;;;;;;22.15;14.57;;;15.70;99.90;;;;;;6216585;23;20028;-71
2022/07/01 07:49:42;;;;;;;20.88;13.80;;;16.00;99.90;;;;;;6216943;23;20020;-73
2022/07/01 07:52:08;;;;;;;21.38;13.27;;;15.90;99.90;;;;;;6190606;23;20020;-74
2022/07/01 07:54:34;;;;;;;21.02;13.98;;;15.70;99.90;;;;;;6216922;23;20346;-73
2022/07/01 07:57:00;;;;;;;21.90;13.25;;;15.80;99.90;;;;;;6216748;23;20019;-71
2022/07/01 07:59:26;;;;;;;22.20;13.77;;;15.80;99.90;;;;;;6190193;23;20323;-71
2022/07/01 08:01:52;;;;;;;23.83;13.15;;;15.80;99.90;;;;;;6216824;23;20456;-71
2022/07/01 08:04:17;;;;;;;23.33;14.48;;;15.80;99.90;;;;;;6216910;23;20025;-71
2022/07/01 08:06:43;;;;;;;19.50;14.05;;;15.80;99.90;;;;;;6189845;23;20019;-71
2022/07/01 08:09:09;;;;;;;23.85;13.98;;;15.80;99.90;;;;;;6190159;23;20021;-71
2022/07/01 08:11:34;;;;;;;20.00;13.93;;;15.90;99.90;;;;;;6216716;23;20410;-73
2022/07/01 08:14:00;;;;;;;21.48;13.10;;;15.90;99.90;;;;;;6216757;23;20012;-73
2022/07/01 08:16:26;;;;;;;22.52;13.40;;;15.90;99.90;;;;;;6216505;23;20013;-73
2022/07/01 08:18:51;;;;;;;22.27;13.32;;;16.00;99.90;;;;;;6216936;23;20334;-71
2022/07/01 08:21:17;;;;;;;21.52;13.88;;;16.00;99.90;;;;;;6216389;23;20094;-71
2022/07/01 08:23:43;;;;;;;20.25;14.15;;;16.00;99.90;;;;;;6216493;23;20365;-72
2022/07/01 08:26:11;;;;;;;19.83;13.63;;;16.00;99.90;;;;;;6216601;23;20027;-73
2022/07/01 08:28:37;;;;;;;24.60;14.05;;;16.10;99.90;;;;;;6189382;23;20350;-73
2022/07/01 08:31:03;;;;;;;20.13;13.27;;;16.10;99.90;;;;;;6216862;23;20017;-74
2022/07/01 08:33:28;;;;;;;18.65;12.80;;;16.10;99.90;;;;;;6216689;23;20442;-73
2022/07/01 08:35:54;;;;;;;21.83;14.00;;;16.20;99.90;;;;;;6215981;23;20346;-71
2022/07/01 08:38:20;;;;;;;20.73;13.27;;;16.20;99.90;;;;;;6216373;23;20390;-71
2022/07/01 08:40:45;;;;;;;22.30;13.82;;;16.20;99.90;;;;;;6216444;23;20019;-73
2022/07/01 08:43:11;;;;;;;18.65;12.05;;;16.20;99.90;;;;;;6216392;23;20016;-72
2022/07/01 08:45:37;;;;;;;16.63;11.73;;;16.10;99.90;;;;;;6216300;23;20071;-71
2022/07/01 08:48:04;;;;;;;22.08;12.93;;;16.20;99.90;;;;;;6216379;23;20142;-73
2022/07/01 08:50:31;;;;;;;17.02;11.80;;;16.30;99.90;;;;;;6216296;23;20095;-71
2022/07/01 08:52:58;;;;;;;18.77;11.55;;;16.30;99.90;;;;;;6189696;23;20016;-71
2022/07/01 08:55:24;;;;;;;20.10;11.82;;;16.30;99.90;;;;;;6189647;23;20046;-73
2022/07/01 08:57:50;;;;;;;;;;;16.30;99.90;;;;;;6216709;23;20021;-71
2022/07/01 09:00:16;;;;;;;17.92;11.73;;;15.30;99.90;;;;;;6189669;23;19930;-71
2022/07/01 09:02:59;;;;;;;18.10;12.32;;;16.30;99.90;;;;;;6216141;23;20020;-72
2022/07/01 09:05:26;;;;;;;16.05;12.18;;;16.30;99.90;;;;;;6216498;23;20023;-71
2022/07/01 09:08:01;;;;;;;16.05;10.38;;;16.30;99.90;;;;;;6214364;23;20327;-72
2022/07/01 09:10:31;;;;;;;14.82;10.65;;;16.30;99.90;;;;;;6216105;23;20016;-72
2022/07/01 09:12:58;;;;;;;19.33;11.48;;;16.30;99.90;;;;;;6216102;23;20095;-73
2022/07/01 09:15:31;;;;;;;16.17;10.48;;;16.30;99.90;;;;;;6189454;23;20015;-71
2022/07/01 09:18:03;;;;;;;18.30;11.15;;;16.30;99.90;;;;;;6215812;23;20052;-71
2022/07/01 09:20:32;;;;;;;19.23;11.23;;;16.30;99.90;;;;;;6214828;23;20023;-71
2022/07/01 09:23:04;;;;;;;18.13;11.02;;;16.30;99.90;;;;;;6215990;23;20099;-71
2022/07/01 09:25:33;;;;;;;15.98;9.35;;;16.30;99.90;;;;;;6189624;23;20083;-70
2022/07/01 09:28:10;;;;;;;14.90;10.70;;;16.40;99.90;;;;;;6216018;23;20028;-72
2022/07/01 09:30:36;;;;;;;;;;;16.40;99.90;;;;;;6216622;23;20052;-71
2022/07/01 09:33:12;;;;;;;16.15;10.32;;;16.40;99.90;;;;;;6215991;23;19916;-71
2022/07/01 09:35:39;;;;;;;12.90;9.32;;;16.50;99.90;;;;;;6214559;23;20146;-70
2022/07/01 09:38:07;;;;;;;13.30;9.65;;;16.50;99.90;;;;;;6214996;23;20099;-71
2022/07/01 09:40:55;;;;;;;14.30;9.98;;;16.50;99.90;;;;;;6216000;23;20016;-73
2022/07/01 09:43:27;;;;;;;13.43;9.38;;;16.60;99.90;;;;;;6215915;23;20399;-72
2022/07/01 09:46:07;;;;;;;16.63;9.65;;;16.70;99.90;;;;;;6189332;23;20353;-73
2022/07/01 09:48:32;;;;;;;15.30;9.00;;;16.80;99.90;;;;;;6214960;23;20013;-71
2022/07/01 09:50:59;;;;;;;13.85;8.98;;;16.80;99.90;;;;;;6189269;23;20032;-71
2022/07/01 09:53:25;;;;;;;18.50;10.07;;;16.80;99.90;;;;;;6215889;23;20076;-69
2022/07/01 09:55:51;;;;;;;13.60;9.18;;;16.90;99.90;;;;;;6215895;23;20017;-71
2022/07/01 09:58:18;;;;;;;15.35;8.38;;;16.90;99.90;;;;;;6215801;23;20028;-72
2022/07/01 10:00:44;;;;;;;10.10;7.65;;;17.00;99.90;;;;;;6215821;23;20016;-71
2022/07/01 10:03:10;;;;;;;;;;;17.00;99.90;;;;;;6216553;23;20024;-71
2022/07/01 10:05:57;;;;;;;10.75;5.35;;;17.00;99.90;;;;;;6215791;23;19916;-71
2022/07/01 10:08:44;;;;;;;8.43;5.35;;;17.10;99.90;;;;;;6215703;23;20013;-71
2022/07/01 10:11:36;;;;;;;9.60;5.90;;;17.10;99.90;;;;;;6188639;23;20089;-71
2022/07/01 10:14:04;;;;;;;10.55;6.15;;;17.20;99.90;;;;;;6189306;23;20091;-70
2022/07/01 10:16:34;;;;;;;10.70;6.45;;;17.20;99.90;;;;;;6215739;23;20024;-70
2022/07/01 10:19:26;;;;;;;9.05;5.80;;;17.30;99.90;;;;;;6215744;23;20027;-71
2022/07/01 10:21:56;;;;;;;12.07;5.15;;;17.40;99.90;;;;;;6214647;23;20021;-71
2022/07/01 10:24:24;;;;;;;8.90;5.00;;;17.40;99.90;;;;;;6215594;23;20430;-71
2022/07/01 10:26:50;;;;;;;7.32;4.70;;;17.40;99.90;;;;;;6215768;23;20021;-71
2022/07/01 10:29:34;;;;;;;6.68;4.53;;;17.40;99.90;;;;;;6215737;23;20074;-70
2022/07/01 10:32:01;;;;;;;9.15;5.80;;;17.40;99.90;;;;;;6215454;23;20021;-71
2022/07/01 10:34:41;;;;;;;10.23;5.63;;;17.40;99.90;;;;;;6215458;23;20021;-71
2022/07/01 10:37:11;;;;;;;9.32;5.10;;;17.50;99.90;;;;;;6215519;23;20073;-72
2022/07/01 10:39:54;;;;;;;9.77;4.55;;;17.50;99.90;;;;;;6215604;23;20434;-72
2022/07/01 10:42:20;;;;;;;6.30;4.00;;;17.50;99.90;;;;;;6213729;23;20095;-71
2022/07/01 10:45:12;;;;;;;10.93;4.38;;;17.60;99.90;;;;;;6214997;23;20024;-71
2022/07/01 10:47:39;;;;;;;7.05;4.50;;;17.50;99.90;;;;;;6157810;23;20020;-71
2022/07/01 10:50:07;;;;;;;8.30;3.85;;;17.60;99.90;;;;;;6189996;23;20504;-71
2022/07/01 10:52:33;;;;;;;9.15;4.28;;;17.60;99.90;;;;;;6217273;23;20020;-71
2022/07/01 10:55:00;;;;;;;;;;;17.60;99.90;;;;;;6217747;23;20136;-71
2022/07/01 10:57:30;;;;;;;10.50;4.57;;;17.70;99.90;;;;;;6216609;23;19923;-71
2022/07/01 11:00:20;;;;;;;7.47;4.38;;;17.70;99.90;;;;;;6217021;23;20027;-73
2022/07/01 11:02:51;;;;;;;9.05;5.15;;;17.80;99.90;;;;;;6215585;23;20071;-71
2022/07/01 11:05:17;;;;;;;12.50;5.55;;;17.80;99.90;;;;;;6217090;23;20019;-71
2022/07/01 11:07:47;;;;;;;7.38;4.13;;;17.80;99.90;;;;;;6217068;23;20099;-71
2022/07/01 11:10:15;;;;;;;9.40;4.20;;;17.80;99.90;;;;;;6216715;23;20075;-71
2022/07/01 11:12:44;;;;;;;9.27;4.18;;;17.80;99.90;;;;;;6216996;23;20020;-71
2022/07/01 11:15:11;;;;;;;8.57;4.13;;;17.80;99.90;;;;;;6216821;23;20342;-70
2022/07/01 11:17:43;;;;;;;9.35;4.78;;;17.80;99.90;;;;;;6216965;23;20148;-71
2022/07/01 11:20:11;;;;;;;9.10;3.95;;;17.80;99.90;;;;;;6216402;23;20411;-72
2022/07/01 11:22:38;;;;;;;7.07;4.05;;;17.80;99.90;;;;;;6217032;23;20024;-71
2022/07/01 11:25:11;;;;;;;6.80;3.55;;;17.80;99.90;;;;;;6216655;23;20079;-72
2022/07/01 11:27:38;;;;;;;7.82;3.58;;;17.90;99.90;;;;;;6190404;23;20039;-71
2022/07/01 11:30:10;;;;;;;7.25;3.95;;;17.90;99.90;;;;;;6216831;23;20017;-71
2022/07/01 11:32:41;;;;;;;9.75;4.05;;;18.00;99.90;;;;;;6216564;23;20020;-70
2022/07/01 11:41:09;;;;;;;5.45;3.72;;;18.00;99.90;;;;;;6154067;23;20025;-72
2022/07/01 11:43:38;;;;;;;5.85;3.58;;;18.00;99.90;;;;;;6154123;23;20032;-72
2022/07/01 11:46:06;;;;;;;6.45;3.13;;;18.10;99.90;;;;;;6153949;23;20013;-72
2022/07/01 11:48:44;;;;;;;5.90;3.42;;;18.10;99.90;;;;;;6153469;23;20111;-71
2022/07/01 11:51:19;;;;;;;6.13;3.38;;;18.10;99.90;;;;;;6153959;23;20021;-72
2022/07/01 11:53:51;;;;;;;5.63;3.30;;;18.10;99.90;;;;;;6152221;23;20033;-73
2022/07/01 11:56:27;;;;;;;6.00;3.17;;;18.20;99.90;;;;;;6153324;23;20014;-72
2022/07/01 11:58:55;;;;;;;;;;;18.20;99.90;;;;;;6154581;23;20391;-73
2022/07/01 12:01:24;;;;;;;6.60;2.97;;;18.20;99.90;;;;;;6153850;23;19948;-72
2022/07/01 12:03:59;;;;;;;4.97;2.92;;;18.30;99.90;;;;;;6153691;23;20040;-72
2022/07/01 12:06:27;;;;;;;5.50;3.63;;;18.30;99.90;;;;;;6153858;23;20071;-72
2022/07/01 12:08:56;;;;;;;8.48;3.65;;;18.40;99.90;;;;;;6153531;23;20018;-70
2022/07/01 12:11:24;;;;;;;6.30;2.75;;;18.40;99.90;;;;;;6153840;23;20060;-70
2022/07/01 12:13:52;;;;;;;5.25;3.00;;;18.40;99.90;;;;;;6167741;23;20114;-70
2022/07/01 12:16:20;;;;;;;5.72;3.60;;;18.50;99.90;;;;;;6189759;23;20016;-70
2022/07/01 12:19:02;;;;;;;7.28;3.60;;;18.60;99.90;;;;;;6189882;23;20020;-71
2022/07/01 12:21:30;;;;;;;5.55;2.97;;;18.60;99.90;;;;;;6216447;23;20096;-70
2022/07/01 12:24:06;;;;;;;9.70;3.30;;;18.70;99.90;;;;;;6216271;23;20016;-71
2022/07/01 12:26:32;;;;;;;4.75;3.03;;;18.80;99.90;;;;;;6216351;23;20067;-71
2022/07/01 12:28:58;;;;;;;;;;;18.80;99.90;;;;;;6216926;23;20035;-71
2022/07/01 12:31:25;;;;;;;4.55;2.78;;;18.80;99.90;;;;;;6216197;23;19916;-70
2022/07/01 12:33:52;;;;;;;6.03;3.28;;;18.90;99.90;;;;;;6216240;23;20016;-69
2022/07/01 12:36:18;;;;;;;5.55;3.08;;;18.90;99.90;;;;;;6215642;23;20013;-71
2022/07/01 12:38:44;;;;;;;;;;;18.90;99.90;;;;;;6216615;23;20495;-70
2022/07/01 12:41:29;;;;;;;4.82;2.58;;;19.00;99.90;;;;;;6189801;23;19916;-69
2022/07/01 12:43:55;;;;;;;4.32;3.15;;;19.00;99.90;;;;;;6216449;23;20016;-70
2022/07/01 12:46:32;;;;;;;3.78;2.78;;;19.00;99.90;;;;;;6189688;23;20060;-70
2022/07/01 12:48:59;;;;;;;3.63;2.08;;;19.10;99.90;;;;;;6189475;23;20028;-69
2022/07/01 12:51:32;;;;;;;3.80;2.20;;;19.10;99.90;;;;;;6216224;23;20079;-70
2022/07/01 12:53:59;;;;;;;4.80;2.00;;;19.10;99.90;;;;;;6189277;23;20354;-71
2022/07/01 12:56:28;;;;;;;4.00;2.25;;;19.10;99.90;;;;;;6215936;23;20023;-71
2022/07/01 12:58:55;;;;;;;7.32;1.90;;;19.00;99.90;;;;;;6215934;23;20028;-72
2022/07/01 13:01:22;;;;;;;3.10;1.67;;;19.00;99.90;;;;;;6215982;23;20091;-71